createdAt,value
2018-11-27T00:00:49.680Z,21.20
2018-11-27T00:03:17.945Z,20.85
2018-11-27T00:05:46.488Z,20.65
2018-11-27T00:08:14.772Z,20.70
2018-11-27T00:10:43.054Z,19.70
2018-11-27T00:13:11.371Z,21.10
2018-11-27T00:15:39.625Z,20.72
2018-11-27T00:18:07.902Z,21.37
2018-11-27T00:20:36.195Z,21.70
2018-11-27T00:23:04.433Z,21.67
2018-11-27T00:25:32.725Z,21.67
2018-11-27T00:28:01.064Z,21.23
2018-11-27T00:30:29.419Z,21.37
2018-11-27T00:32:57.661Z,21.95
2018-11-27T00:35:25.946Z,21.50
2018-11-27T00:37:54.178Z,22.37
2018-11-27T00:40:24.074Z,22.93
2018-11-27T00:42:52.517Z,22.37
2018-11-27T00:45:21.554Z,21.57
2018-11-27T00:47:50.774Z,23.90
2018-11-27T00:50:23.357Z,23.47
2018-11-27T00:52:51.737Z,23.10
2018-11-27T00:55:20.567Z,21.62
2018-11-27T00:57:50.092Z,22.30
2018-11-27T01:00:22.500Z,21.68
2018-11-27T01:02:50.805Z,22.60
2018-11-27T01:05:20.770Z,22.30
2018-11-27T01:07:49.019Z,21.57
2018-11-27T01:10:20.881Z,23.10
2018-11-27T01:12:49.322Z,23.50
2018-11-27T01:15:17.549Z,22.80
2018-11-27T01:17:52.169Z,22.40
2018-11-27T01:20:21.396Z,22.30
2018-11-27T01:22:49.713Z,22.30
2018-11-27T01:25:17.952Z,22.02
2018-11-27T01:27:46.221Z,23.15
2018-11-27T01:30:15.474Z,22.55
2018-11-27T01:32:43.811Z,22.22
2018-11-27T01:35:13.275Z,22.32
2018-11-27T01:37:41.517Z,21.95
2018-11-27T01:40:14.218Z,21.50
2018-11-27T01:42:42.481Z,22.25
2018-11-27T01:45:12.828Z,22.58
2018-11-27T01:47:41.187Z,22.95
2018-11-27T01:50:13.379Z,23.73
2018-11-27T01:52:41.640Z,22.13
2018-11-27T01:55:10.984Z,21.50
2018-11-27T01:57:39.237Z,21.80
2018-11-27T02:00:10.558Z,21.82
2018-11-27T02:02:38.786Z,21.53
2018-11-27T02:05:08.022Z,21.93
2018-11-27T02:07:36.284Z,23.77
2018-11-27T02:10:07.110Z,22.15
2018-11-27T02:12:35.443Z,22.90
2018-11-27T02:15:03.817Z,22.95
2018-11-27T02:17:32.096Z,22.67
2018-11-27T02:20:00.345Z,24.10
2018-11-27T02:22:28.617Z,21.87
2018-11-27T02:24:56.925Z,23.30
2018-11-27T02:27:25.177Z,22.65
2018-11-27T02:29:53.464Z,23.22
2018-11-27T02:32:21.710Z,23.20
2018-11-27T02:34:49.926Z,22.90
2018-11-27T02:37:18.200Z,22.53
2018-11-27T02:39:46.560Z,23.02
2018-11-27T02:42:14.864Z,21.80
2018-11-27T02:44:43.104Z,22.77
2018-11-27T02:47:11.393Z,21.42
2018-11-27T02:49:39.646Z,22.25
2018-11-27T02:52:07.882Z,22.37
2018-11-27T02:54:36.313Z,22.98
2018-11-27T02:57:04.552Z,22.02
2018-11-27T02:59:32.828Z,21.85
2018-11-27T03:02:01.052Z,21.42
2018-11-27T03:04:29.290Z,22.22
2018-11-27T03:06:57.537Z,24.05
2018-11-27T03:09:25.781Z,22.75
2018-11-27T03:11:54.059Z,23.45
2018-11-27T03:14:22.296Z,23.73
2018-11-27T03:16:50.593Z,23.80
2018-11-27T03:19:18.912Z,24.75
2018-11-27T03:21:47.160Z,25.23
2018-11-27T03:24:15.396Z,24.07
2018-11-27T03:26:43.698Z,24.55
2018-11-27T03:29:11.903Z,24.35
2018-11-27T03:31:40.183Z,24.07
2018-11-27T03:34:08.453Z,25.00
2018-11-27T03:36:36.699Z,26.15
2018-11-27T03:39:09.196Z,25.33
2018-11-27T03:41:37.653Z,24.18
2018-11-27T03:44:06.347Z,25.35
2018-11-27T03:46:34.644Z,25.70
2018-11-27T03:49:02.898Z,25.62
2018-11-27T03:51:31.149Z,26.37
2018-11-27T03:53:59.421Z,25.37
2018-11-27T03:56:27.660Z,26.25
2018-11-27T03:58:55.914Z,25.77
2018-11-27T04:01:24.171Z,26.40
2018-11-27T04:03:52.481Z,27.17
2018-11-27T04:06:20.825Z,27.57
2018-11-27T04:08:49.213Z,27.50
2018-11-27T04:11:17.493Z,26.37
2018-11-27T04:13:45.731Z,26.10
2018-11-27T04:16:13.969Z,27.47
2018-11-27T04:18:42.199Z,26.48
2018-11-27T04:21:10.443Z,26.42
2018-11-27T04:23:38.684Z,27.32
2018-11-27T04:26:07.063Z,27.05
2018-11-27T04:28:35.316Z,27.67
2018-11-27T04:31:03.551Z,27.22
2018-11-27T04:33:31.823Z,27.07
2018-11-27T04:36:00.249Z,27.87
2018-11-27T04:38:28.529Z,28.62
2018-11-27T04:40:56.803Z,26.45
2018-11-27T04:43:25.045Z,27.70
2018-11-27T04:45:53.309Z,27.85
2018-11-27T04:48:21.551Z,28.57
2018-11-27T04:50:49.763Z,27.45
2018-11-27T04:53:18.070Z,26.62
2018-11-27T04:55:46.322Z,27.58
2018-11-27T04:58:14.630Z,28.27
2018-11-27T05:00:42.891Z,27.55
2018-11-27T05:03:11.141Z,27.27
2018-11-27T05:05:39.366Z,27.98
2018-11-27T05:08:07.614Z,27.75
2018-11-27T05:10:35.904Z,27.98
2018-11-27T05:13:04.182Z,26.90
2018-11-27T05:15:32.457Z,27.70
2018-11-27T05:18:00.715Z,26.82
2018-11-27T05:20:28.955Z,28.38
2018-11-27T05:22:57.211Z,27.27
2018-11-27T05:25:25.557Z,26.48
2018-11-27T05:27:55.103Z,26.93
2018-11-27T05:30:24.461Z,26.33
2018-11-27T05:32:52.707Z,26.87
2018-11-27T05:35:24.332Z,27.22
2018-11-27T05:37:52.663Z,26.15
2018-11-27T05:40:22.949Z,26.60
2018-11-27T05:42:52.404Z,26.30
2018-11-27T05:45:21.740Z,26.62
2018-11-27T05:47:50.020Z,24.75
2018-11-27T05:50:19.045Z,24.72
2018-11-27T05:52:47.280Z,25.48
2018-11-27T05:55:15.973Z,25.77
2018-11-27T05:57:45.433Z,24.50
2018-11-27T06:00:19.169Z,24.90
2018-11-27T06:02:48.447Z,25.15
2018-11-27T06:05:20.589Z,25.30
2018-11-27T06:07:48.889Z,25.32
2018-11-27T06:10:20.131Z,24.55
2018-11-27T06:12:51.341Z,24.33
2018-11-27T06:15:21.756Z,25.53
2018-11-27T06:17:53.483Z,24.55
2018-11-27T06:20:22.423Z,24.37
2018-11-27T06:22:50.941Z,25.37
2018-11-27T06:25:33.896Z,24.27
2018-11-27T06:28:03.457Z,24.87
2018-11-27T06:30:32.667Z,24.67
2018-11-27T06:33:00.941Z,25.80
2018-11-27T06:35:30.749Z,24.20
2018-11-27T06:37:58.985Z,26.12
2018-11-27T06:40:28.465Z,24.52
2018-11-27T06:42:56.823Z,25.10
2018-11-27T06:45:25.069Z,24.85
2018-11-27T06:47:53.661Z,24.18
2018-11-27T06:50:22.568Z,24.32
2018-11-27T06:52:50.773Z,25.65
2018-11-27T06:55:22.196Z,24.77
2018-11-27T06:57:50.869Z,25.30
2018-11-27T07:00:24.279Z,24.60
2018-11-27T07:02:52.545Z,27.15
2018-11-27T07:05:20.869Z,23.80
2018-11-27T07:07:49.216Z,23.60
2018-11-27T07:10:19.719Z,23.95
2018-11-27T07:12:48.846Z,24.25
2018-11-27T07:15:19.430Z,23.80
2018-11-27T07:17:47.660Z,23.95
2018-11-27T07:20:15.916Z,24.02
2018-11-27T07:22:44.196Z,24.92
2018-11-27T07:25:13.616Z,24.43
2018-11-27T07:27:44.235Z,24.10
2018-11-27T07:30:23.149Z,24.43
2018-11-27T07:32:51.435Z,22.95
2018-11-27T07:35:20.272Z,24.15
2018-11-27T07:37:48.729Z,25.62
2018-11-27T07:40:21.253Z,24.40
2018-11-27T07:42:52.807Z,24.60
2018-11-27T07:45:21.829Z,23.73
2018-11-27T07:47:50.098Z,24.40
2018-11-27T07:50:18.595Z,23.47
2018-11-27T07:52:46.982Z,24.10
2018-11-27T07:55:16.347Z,24.00
2018-11-27T07:57:44.625Z,23.22
2018-11-27T08:00:14.757Z,23.95
2018-11-27T08:02:43.914Z,23.18
2018-11-27T08:05:13.481Z,23.92
2018-11-27T08:07:42.862Z,23.42
2018-11-27T08:10:12.668Z,23.62
2018-11-27T08:12:40.916Z,24.43
2018-11-27T08:15:11.297Z,23.60
2018-11-27T08:17:40.056Z,23.57
2018-11-27T08:20:11.040Z,22.93
2018-11-27T08:22:39.272Z,22.95
2018-11-27T08:25:09.192Z,23.45
2018-11-27T08:27:37.444Z,21.48
2018-11-27T08:30:08.401Z,22.45
2018-11-27T08:32:36.626Z,21.82
2018-11-27T08:35:05.348Z,22.65
2018-11-27T08:37:33.584Z,21.83
2018-11-27T08:40:01.856Z,22.70
2018-11-27T08:42:30.077Z,22.60
2018-11-27T08:44:58.310Z,23.05
2018-11-27T08:47:26.583Z,23.30
2018-11-27T08:49:54.826Z,23.20
2018-11-27T08:52:23.074Z,21.93
2018-11-27T08:54:51.328Z,21.40
2018-11-27T08:57:19.566Z,22.65
2018-11-27T08:59:47.779Z,22.55
2018-11-27T09:02:16.040Z,22.17
2018-11-27T09:04:44.374Z,22.30
2018-11-27T09:07:12.647Z,22.40
2018-11-27T09:09:40.885Z,21.93
2018-11-27T09:12:09.206Z,20.20
2018-11-27T09:14:37.431Z,20.90
2018-11-27T09:17:06.080Z,21.68
2018-11-27T09:19:34.301Z,20.48
2018-11-27T09:22:02.549Z,19.77
2018-11-27T09:24:30.888Z,21.42
2018-11-27T09:26:59.077Z,20.75
2018-11-27T09:29:27.364Z,20.85
2018-11-27T09:31:55.617Z,20.00
2018-11-27T09:34:23.878Z,21.33
2018-11-27T09:36:52.165Z,20.88
2018-11-27T09:39:20.474Z,19.87
2018-11-27T09:41:48.818Z,20.10
2018-11-27T09:44:17.049Z,21.02
2018-11-27T09:46:45.314Z,21.30
2018-11-27T09:49:13.630Z,20.23
2018-11-27T09:51:41.871Z,21.00
2018-11-27T09:54:10.084Z,20.63
2018-11-27T09:56:38.362Z,20.90
2018-11-27T09:59:06.643Z,20.70
2018-11-27T10:01:34.940Z,20.90
2018-11-27T10:04:03.205Z,19.65
2018-11-27T10:06:31.451Z,20.00
2018-11-27T10:08:59.751Z,19.75
2018-11-27T10:11:28.021Z,19.15
2018-11-27T10:13:56.312Z,21.50
2018-11-27T10:16:24.605Z,20.68
2018-11-27T10:18:52.864Z,20.40
2018-11-27T10:21:21.126Z,21.00
2018-11-27T10:23:49.408Z,20.50
2018-11-27T10:26:17.625Z,20.80
2018-11-27T10:28:45.826Z,20.37
2018-11-27T10:31:14.093Z,21.52
2018-11-27T10:33:42.352Z,20.62
2018-11-27T10:36:10.678Z,19.57
2018-11-27T10:38:38.972Z,18.80
2018-11-27T10:41:07.216Z,19.77
2018-11-27T10:43:35.538Z,19.50
2018-11-27T10:46:03.791Z,19.23
2018-11-27T10:48:32.059Z,19.37
2018-11-27T10:51:00.340Z,19.37
2018-11-27T10:53:28.569Z,18.32
2018-11-27T10:55:56.925Z,18.32
2018-11-27T10:58:25.186Z,17.75
2018-11-27T11:00:58.795Z,18.77
2018-11-27T11:03:41.230Z,18.90
2018-11-27T11:06:09.984Z,18.87
2018-11-27T11:08:38.225Z,19.70
2018-11-27T11:11:07.438Z,19.12
2018-11-27T11:13:35.671Z,18.25
2018-11-27T11:16:04.021Z,17.98
2018-11-27T11:18:32.308Z,19.27
2018-11-27T11:21:00.538Z,19.42
2018-11-27T11:23:28.825Z,18.80
2018-11-27T11:25:57.053Z,19.07
2018-11-27T11:28:27.195Z,18.30
2018-11-27T11:30:55.426Z,18.42
2018-11-27T11:33:23.764Z,17.50
2018-11-27T11:35:52.001Z,17.52
2018-11-27T11:38:20.337Z,17.73
2018-11-27T11:40:48.651Z,17.37
2018-11-27T11:43:16.987Z,17.10
2018-11-27T11:45:45.268Z,17.20
2018-11-27T11:48:13.521Z,17.10
2018-11-27T11:50:41.796Z,17.37
2018-11-27T11:53:12.834Z,17.65
2018-11-27T11:55:41.147Z,16.90
2018-11-27T11:58:09.504Z,17.42
2018-11-27T12:00:40.729Z,17.20
2018-11-27T12:03:09.153Z,17.13
2018-11-27T12:05:37.725Z,17.00
2018-11-27T12:08:07.318Z,17.60
2018-11-27T12:10:36.219Z,16.30
2018-11-27T12:13:04.682Z,17.43
2018-11-27T12:15:32.920Z,17.17
2018-11-27T12:18:01.154Z,17.80
2018-11-27T12:20:29.510Z,17.65
2018-11-27T12:23:00.061Z,16.62
2018-11-27T12:25:28.283Z,17.37
2018-11-27T12:27:56.709Z,17.07
2018-11-27T12:30:25.857Z,17.25
2018-11-27T12:32:54.314Z,17.50
2018-11-27T12:35:23.328Z,17.93
2018-11-27T12:37:51.785Z,17.40
2018-11-27T12:40:27.033Z,17.87
2018-11-27T12:42:55.932Z,17.55
2018-11-27T12:45:25.293Z,17.27
2018-11-27T12:47:54.069Z,17.12
2018-11-27T12:50:27.585Z,17.00
2018-11-27T12:52:55.821Z,17.40
2018-11-27T12:55:24.679Z,17.75
2018-11-27T12:57:52.926Z,16.20
2018-11-27T13:00:22.872Z,15.95
2018-11-27T13:02:51.272Z,16.37
2018-11-27T13:05:33.458Z,16.52
2018-11-27T13:08:03.104Z,16.27
2018-11-27T13:10:31.383Z,16.47
2018-11-27T13:12:59.600Z,16.45
2018-11-27T13:15:27.897Z,15.70
2018-11-27T13:17:56.125Z,15.40
2018-11-27T13:20:24.410Z,15.78
2018-11-27T13:22:52.645Z,14.70
2018-11-27T13:25:22.365Z,14.78
2018-11-27T13:27:51.789Z,15.40
2018-11-27T13:30:26.481Z,15.40
2018-11-27T13:32:58.478Z,15.13
2018-11-27T13:35:26.748Z,16.10
2018-11-27T13:37:54.965Z,16.32
2018-11-27T13:40:23.198Z,16.93
2018-11-27T13:42:51.470Z,16.73
2018-11-27T13:45:19.708Z,15.10
2018-11-27T13:47:47.949Z,17.82
2018-11-27T13:50:17.053Z,17.23
2018-11-27T13:52:45.261Z,17.60
2018-11-27T13:55:15.119Z,18.00
2018-11-27T13:57:43.390Z,18.27
2018-11-27T14:00:12.817Z,18.03
2018-11-27T14:02:41.556Z,18.45
2018-11-27T14:05:12.613Z,18.60
2018-11-27T14:07:40.867Z,17.12
2018-11-27T14:10:10.561Z,16.60
2018-11-27T14:12:38.846Z,27.70
2018-11-27T14:15:14.322Z,28.55
2018-11-27T14:17:42.575Z,29.73
2018-11-27T14:20:10.862Z,26.40
2018-11-27T14:22:39.097Z,18.50
2018-11-27T14:25:09.097Z,19.98
2018-11-27T14:27:37.344Z,17.00
2018-11-27T14:30:09.365Z,16.67
2018-11-27T14:32:37.589Z,19.00
2018-11-27T14:35:06.297Z,19.02
2018-11-27T14:37:34.656Z,19.40
2018-11-27T14:40:03.092Z,19.42
2018-11-27T14:42:31.327Z,18.85
2018-11-27T14:44:59.614Z,19.32
2018-11-27T14:47:27.949Z,22.02
2018-11-27T14:49:56.228Z,20.30
2018-11-27T14:52:24.474Z,16.80
2018-11-27T14:54:52.761Z,16.95
2018-11-27T14:57:20.959Z,17.42
2018-11-27T14:59:49.212Z,16.73
2018-11-27T15:02:17.472Z,17.10
2018-11-27T15:04:45.716Z,15.93
2018-11-27T15:07:13.951Z,16.62
2018-11-27T15:09:42.142Z,15.93
2018-11-27T15:12:10.416Z,16.57
2018-11-27T15:14:38.675Z,16.77
2018-11-27T15:17:06.923Z,15.13
2018-11-27T15:19:35.231Z,16.55
2018-11-27T15:22:03.560Z,16.37
2018-11-27T15:24:31.805Z,16.65
2018-11-27T15:27:00.051Z,16.60
2018-11-27T15:29:28.302Z,15.20
2018-11-27T15:31:56.601Z,17.02
2018-11-27T15:34:24.856Z,16.37
2018-11-27T15:36:53.183Z,15.38
2018-11-27T15:39:21.407Z,16.15
2018-11-27T15:41:49.668Z,14.78
2018-11-27T15:44:17.993Z,13.60
2018-11-27T15:46:46.265Z,14.15
2018-11-27T15:49:14.534Z,14.78
2018-11-27T15:51:42.872Z,15.93
2018-11-27T15:54:11.134Z,15.15
2018-11-27T15:56:39.353Z,14.73
2018-11-27T15:59:07.670Z,14.95
2018-11-27T16:01:35.910Z,15.57
2018-11-27T16:04:04.182Z,16.40
2018-11-27T16:06:32.478Z,15.75
2018-11-27T16:09:00.706Z,15.50
2018-11-27T16:11:28.963Z,15.32
2018-11-27T16:13:57.193Z,18.20
2018-11-27T16:16:25.442Z,17.05
2018-11-27T16:18:53.815Z,17.50
2018-11-27T16:21:22.067Z,17.82
2018-11-27T16:23:50.300Z,16.87
2018-11-27T16:26:18.533Z,17.17
2018-11-27T16:28:46.804Z,15.45
2018-11-27T16:31:15.131Z,16.27
2018-11-27T16:33:43.416Z,15.83
2018-11-27T16:36:11.699Z,15.70
2018-11-27T16:38:40.192Z,15.95
2018-11-27T16:41:08.152Z,15.98
2018-11-27T16:43:36.392Z,15.45
2018-11-27T16:46:04.639Z,14.90
2018-11-27T16:48:32.868Z,16.02
2018-11-27T16:51:01.115Z,14.38
2018-11-27T16:53:29.439Z,15.80
2018-11-27T16:55:57.726Z,15.23
2018-11-27T16:58:25.986Z,15.13
2018-11-27T17:00:54.263Z,14.63
2018-11-27T17:03:22.552Z,15.85
2018-11-27T17:05:50.809Z,14.80
2018-11-27T17:08:19.100Z,16.50
2018-11-27T17:10:47.348Z,15.45
2018-11-27T17:13:16.245Z,16.27
2018-11-27T17:15:44.547Z,16.85
2018-11-27T17:18:13.223Z,15.83
2018-11-27T17:20:42.833Z,16.37
2018-11-27T17:23:18.709Z,16.82
2018-11-27T17:25:46.952Z,15.10
2018-11-27T17:28:20.736Z,16.90
2018-11-27T17:30:53.251Z,15.30
2018-11-27T17:33:29.802Z,16.45
2018-11-27T17:35:58.713Z,15.90
2018-11-27T17:38:26.937Z,15.90
2018-11-27T17:40:55.226Z,16.05
2018-11-27T17:43:23.513Z,17.10
2018-11-27T17:45:51.751Z,21.23
2018-11-27T17:48:19.988Z,16.82
2018-11-27T17:50:48.245Z,15.68
2018-11-27T17:53:16.533Z,17.07
2018-11-27T17:55:44.790Z,15.10
2018-11-27T17:58:13.980Z,15.25
2018-11-27T18:00:42.188Z,15.03
2018-11-27T18:03:11.238Z,14.93
2018-11-27T18:05:39.481Z,15.80
2018-11-27T18:08:08.068Z,15.50
2018-11-27T18:10:37.032Z,15.98
2018-11-27T18:13:06.189Z,15.80
2018-11-27T18:15:34.766Z,15.10
2018-11-27T18:18:03.000Z,14.50
2018-11-27T18:20:31.241Z,14.90
2018-11-27T18:22:59.539Z,15.13
2018-11-27T18:25:27.768Z,14.85
2018-11-27T18:27:56.104Z,15.32
2018-11-27T18:30:24.490Z,15.28
2018-11-27T18:32:52.736Z,16.17
2018-11-27T18:35:22.311Z,14.55
2018-11-27T18:37:51.386Z,15.50
2018-11-27T18:40:19.883Z,15.03
2018-11-27T18:42:48.401Z,15.53
2018-11-27T18:45:26.803Z,15.70
2018-11-27T18:47:55.083Z,15.80
2018-11-27T18:50:24.610Z,16.32
2018-11-27T18:52:52.895Z,16.50
2018-11-27T18:55:21.137Z,16.40
2018-11-27T18:57:49.755Z,19.32
2018-11-27T19:00:21.366Z,23.90
2018-11-27T19:02:49.604Z,24.40
2018-11-27T19:05:17.842Z,23.07
2018-11-27T19:07:46.135Z,23.63
2018-11-27T19:10:23.196Z,22.27
2018-11-27T19:12:51.477Z,22.82
2018-11-27T19:15:30.811Z,21.40
2018-11-27T19:18:30.225Z,22.67
2018-11-27T19:20:58.469Z,20.37
2018-11-27T19:23:26.973Z,22.27
2018-11-27T19:25:55.247Z,22.17
2018-11-27T19:28:23.616Z,21.93
2018-11-27T19:30:52.228Z,21.45
2018-11-27T19:33:20.582Z,20.95
2018-11-27T19:35:48.812Z,21.75
2018-11-27T19:38:18.364Z,20.80
2018-11-27T19:40:46.737Z,21.20
2018-11-27T19:43:14.958Z,20.77
2018-11-27T19:45:43.214Z,19.98
2018-11-27T19:48:12.918Z,20.82
2018-11-27T19:50:41.217Z,19.80
2018-11-27T19:53:12.214Z,18.98
2018-11-27T19:55:39.746Z,18.55
2018-11-27T19:58:08.765Z,17.50
2018-11-27T20:00:37.270Z,16.77
2018-11-27T20:03:07.273Z,16.87
2018-11-27T20:05:35.551Z,17.90
2018-11-27T20:08:03.949Z,19.07
2018-11-27T20:10:32.314Z,20.10
2018-11-27T20:13:00.568Z,17.93
2018-11-27T20:15:29.338Z,18.50
2018-11-27T20:17:58.229Z,18.27
2018-11-27T20:20:27.671Z,18.98
2018-11-27T20:22:57.081Z,17.23
2018-11-27T20:25:25.606Z,19.30
2018-11-27T20:27:54.004Z,18.67
2018-11-27T20:30:24.103Z,19.20
2018-11-27T20:32:54.714Z,18.30
2018-11-27T20:35:23.015Z,17.15
2018-11-27T20:37:52.102Z,17.50
2018-11-27T20:40:20.761Z,17.67
2018-11-27T20:42:49.424Z,18.95
2018-11-27T20:45:22.886Z,18.62
2018-11-27T20:47:53.539Z,18.52
2018-11-27T20:50:22.768Z,17.95
2018-11-27T20:52:51.040Z,17.82
2018-11-27T20:55:19.691Z,17.62
2018-11-27T20:57:53.432Z,17.62
2018-11-27T21:00:24.773Z,19.15
2018-11-27T21:02:54.683Z,18.73
2018-11-27T21:05:22.887Z,17.60
2018-11-27T21:07:51.222Z,18.10
2018-11-27T21:10:19.439Z,18.67
2018-11-27T21:12:47.780Z,39.55
2018-11-27T21:15:17.934Z,28.80
2018-11-27T21:17:46.180Z,25.52
2018-11-27T21:20:15.235Z,20.10
2018-11-27T21:22:43.615Z,18.83
2018-11-27T21:25:27.341Z,17.45
2018-11-27T21:28:17.623Z,16.10
2018-11-27T21:30:47.508Z,17.55
2018-11-27T21:33:15.717Z,16.77
2018-11-27T21:35:44.075Z,16.07
2018-11-27T21:38:12.351Z,16.40
2018-11-27T21:40:40.572Z,16.90
2018-11-27T21:43:09.010Z,16.20
2018-11-27T21:45:37.441Z,16.62
2018-11-27T21:48:06.210Z,15.93
2018-11-27T21:50:40.000Z,17.67
2018-11-27T21:53:08.260Z,17.15
2018-11-27T21:55:36.729Z,17.50
2018-11-27T21:58:04.950Z,17.70
2018-11-27T22:00:33.357Z,16.90
2018-11-27T22:03:01.582Z,16.73
2018-11-27T22:05:29.829Z,17.10
2018-11-27T22:07:58.095Z,16.45
2018-11-27T22:10:26.373Z,17.37
2018-11-27T22:12:55.679Z,16.35
2018-11-27T22:15:28.642Z,17.73
2018-11-27T22:17:56.940Z,16.90
2018-11-27T22:20:25.244Z,17.45
2018-11-27T22:22:53.473Z,17.00
2018-11-27T22:25:21.744Z,16.70
2018-11-27T22:27:49.981Z,16.97
2018-11-27T22:30:19.173Z,16.05
2018-11-27T22:32:49.449Z,16.45
2018-11-27T22:35:17.702Z,17.15
2018-11-27T22:37:45.934Z,17.77
2018-11-27T22:40:23.041Z,17.17
2018-11-27T22:42:51.884Z,16.23
2018-11-27T22:45:25.356Z,16.85
2018-11-27T22:47:53.565Z,16.52
2018-11-27T22:50:21.948Z,15.95
2018-11-27T22:52:50.236Z,16.60
2018-11-27T22:55:18.477Z,15.88
2018-11-27T22:57:46.696Z,15.85
2018-11-27T23:00:19.695Z,16.20
2018-11-27T23:02:48.003Z,16.25
2018-11-27T23:05:16.814Z,18.12
2018-11-27T23:07:45.047Z,17.92
2018-11-27T23:10:14.026Z,17.50
2018-11-27T23:12:42.381Z,16.95
2018-11-27T23:15:12.183Z,16.97
2018-11-27T23:17:40.439Z,17.15
2018-11-27T23:20:11.282Z,16.50
2018-11-27T23:22:39.602Z,14.60
2018-11-27T23:25:12.247Z,15.80
2018-11-27T23:27:40.833Z,15.50
2018-11-27T23:30:17.582Z,16.80
2018-11-27T23:32:45.830Z,16.90
2018-11-27T23:35:14.132Z,15.70
2018-11-27T23:37:42.447Z,16.37
2018-11-27T23:40:15.956Z,16.62
2018-11-27T23:42:44.564Z,16.07
2018-11-27T23:45:14.738Z,16.42
2018-11-27T23:47:43.033Z,16.60
2018-11-27T23:50:12.246Z,16.40
2018-11-27T23:52:40.469Z,15.30
2018-11-27T23:55:09.896Z,16.67
2018-11-27T23:57:38.395Z,16.50
